sensor_id;sensor_type;location;lat;lon;timestamp;temperature;humidity
20560;DHT22;10438;51.454;6.718;2022-08-01T00:00:39;19.00;99.90
20560;DHT22;10438;51.454;6.718;2022-08-01T00:03:05;19.00;99.90
20560;DHT22;10438;51.454;6.718;2022-08-01T00:05:30;19.00;99.90
20560;DHT22;10438;51.454;6.718;2022-08-01T00:07:56;19.00;99.90
20560;DHT22;10438;51.454;6.718;2022-08-01T00:10:21;19.00;99.90
20560;DHT22;10438;51.454;6.718;2022-08-01T00:12:47;19.10;99.90
20560;DHT22;10438;51.454;6.718;2022-08-01T00:15:15;19.00;99.90
20560;DHT22;10438;51.454;6.718;2022-08-01T00:17:41;19.00;99.90
20560;DHT22;10438;51.454;6.718;2022-08-01T00:20:10;19.00;99.90
20560;DHT22;10438;51.454;6.718;2022-08-01T00:22:36;19.10;99.90
20560;DHT22;10438;51.454;6.718;2022-08-01T00:25:03;19.00;99.90
20560;DHT22;10438;51.454;6.718;2022-08-01T00:27:29;19.00;99.90
20560;DHT22;10438;51.454;6.718;2022-08-01T00:29:54;19.00;99.90
20560;DHT22;10438;51.454;6.718;2022-08-01T00:32:20;19.00;99.90
20560;DHT22;10438;51.454;6.718;2022-08-01T00:34:45;19.00;99.90
20560;DHT22;10438;51.454;6.718;2022-08-01T00:37:11;19.00;99.90
20560;DHT22;10438;51.454;6.718;2022-08-01T00:39:36;19.00;99.90
20560;DHT22;10438;51.454;6.718;2022-08-01T00:42:10;19.00;99.90
20560;DHT22;10438;51.454;6.718;2022-08-01T00:44:36;19.00;99.90
20560;DHT22;10438;51.454;6.718;2022-08-01T00:47:03;19.00;99.90
20560;DHT22;10438;51.454;6.718;2022-08-01T00:49:29;19.00;99.90
20560;DHT22;10438;51.454;6.718;2022-08-01T00:51:55;19.00;99.90
20560;DHT22;10438;51.454;6.718;2022-08-01T00:54:22;19.00;99.90
20560;DHT22;10438;51.454;6.718;2022-08-01T00:56:48;19.00;99.90
20560;DHT22;10438;51.454;6.718;2022-08-01T00:59:14;19.00;99.90
20560;DHT22;10438;51.454;6.718;2022-08-01T01:01:42;19.00;99.90
20560;DHT22;10438;51.454;6.718;2022-08-01T01:04:08;19.10;99.90
20560;DHT22;10438;51.454;6.718;2022-08-01T01:14:51;19.00;99.90
20560;DHT22;10438;51.454;6.718;2022-08-01T01:17:24;19.00;99.90
20560;DHT22;10438;51.454;6.718;2022-08-01T01:19:51;18.90;99.90
20560;DHT22;10438;51.454;6.718;2022-08-01T01:27:51;18.90;99.90
20560;DHT22;10438;51.454;6.718;2022-08-01T01:30:24;18.80;99.90
20560;DHT22;10438;51.454;6.718;2022-08-01T01:32:51;18.80;99.90
20560;DHT22;10438;51.454;6.718;2022-08-01T01:35:22;18.80;99.90
20560;DHT22;10438;51.454;6.718;2022-08-01T01:37:56;18.80;99.90
20560;DHT22;10438;51.454;6.718;2022-08-01T01:40:24;18.80;99.90
20560;DHT22;10438;51.454;6.718;2022-08-01T01:42:50;18.80;99.90
20560;DHT22;10438;51.454;6.718;2022-08-01T01:45:18;18.80;99.90
20560;DHT22;10438;51.454;6.718;2022-08-01T01:47:45;18.90;99.90
20560;DHT22;10438;51.454;6.718;2022-08-01T01:50:11;18.90;99.90
20560;DHT22;10438;51.454;6.718;2022-08-01T01:52:39;19.00;99.90
20560;DHT22;10438;51.454;6.718;2022-08-01T01:55:07;18.90;99.90
20560;DHT22;10438;51.454;6.718;2022-08-01T01:57:37;18.90;99.90
20560;DHT22;10438;51.454;6.718;2022-08-01T02:00:04;18.90;99.90
20560;DHT22;10438;51.454;6.718;2022-08-01T02:02:32;18.90;99.90
20560;DHT22;10438;51.454;6.718;2022-08-01T02:04:59;19.00;99.90
20560;DHT22;10438;51.454;6.718;2022-08-01T02:07:26;19.00;99.90
20560;DHT22;10438;51.454;6.718;2022-08-01T02:09:54;18.90;99.90
20560;DHT22;10438;51.454;6.718;2022-08-01T02:12:21;19.00;99.90
20560;DHT22;10438;51.454;6.718;2022-08-01T02:14:48;19.00;99.90
20560;DHT22;10438;51.454;6.718;2022-08-01T02:17:17;18.90;99.90
20560;DHT22;10438;51.454;6.718;2022-08-01T02:19:44;18.90;99.90
20560;DHT22;10438;51.454;6.718;2022-08-01T02:24:50;19.00;99.90
20560;DHT22;10438;51.454;6.718;2022-08-01T02:27:19;19.00;99.90
20560;DHT22;10438;51.454;6.718;2022-08-01T02:29:59;19.00;99.90
20560;DHT22;10438;51.454;6.718;2022-08-01T02:32:36;18.90;99.90
20560;DHT22;10438;51.454;6.718;2022-08-01T02:35:05;19.00;99.90
20560;DHT22;10438;51.454;6.718;2022-08-01T02:37:34;19.00;99.90
20560;DHT22;10438;51.454;6.718;2022-08-01T02:40:02;18.90;99.90
20560;DHT22;10438;51.454;6.718;2022-08-01T02:42:28;19.00;99.90
20560;DHT22;10438;51.454;6.718;2022-08-01T02:44:56;18.90;99.90
20560;DHT22;10438;51.454;6.718;2022-08-01T02:47:23;18.90;99.90
20560;DHT22;10438;51.454;6.718;2022-08-01T02:49:52;19.00;99.90
20560;DHT22;10438;51.454;6.718;2022-08-01T02:52:20;18.90;99.90
20560;DHT22;10438;51.454;6.718;2022-08-01T02:54:48;18.90;99.90
20560;DHT22;10438;51.454;6.718;2022-08-01T02:57:15;19.00;99.90
20560;DHT22;10438;51.454;6.718;2022-08-01T02:59:42;18.90;99.90
20560;DHT22;10438;51.454;6.718;2022-08-01T03:02:09;19.00;99.90
20560;DHT22;10438;51.454;6.718;2022-08-01T03:04:38;19.00;99.90
20560;DHT22;10438;51.454;6.718;2022-08-01T03:07:06;18.90;99.90
20560;DHT22;10438;51.454;6.718;2022-08-01T03:09:37;18.90;99.90
20560;DHT22;10438;51.454;6.718;2022-08-01T03:12:07;18.90;99.90
20560;DHT22;10438;51.454;6.718;2022-08-01T03:14:36;18.90;99.90
20560;DHT22;10438;51.454;6.718;2022-08-01T03:17:05;18.90;99.90
20560;DHT22;10438;51.454;6.718;2022-08-01T03:19:31;18.90;99.90
20560;DHT22;10438;51.454;6.718;2022-08-01T03:21:59;18.90;99.90
20560;DHT22;10438;51.454;6.718;2022-08-01T03:24:27;18.90;99.90
20560;DHT22;10438;51.454;6.718;2022-08-01T03:26:56;18.90;99.90
20560;DHT22;10438;51.454;6.718;2022-08-01T03:29:25;18.90;99.90
20560;DHT22;10438;51.454;6.718;2022-08-01T03:31:52;18.90;99.90
20560;DHT22;10438;51.454;6.718;2022-08-01T03:34:18;18.90;99.90
20560;DHT22;10438;51.454;6.718;2022-08-01T03:36:51;18.90;99.90
20560;DHT22;10438;51.454;6.718;2022-08-01T03:39:21;18.90;99.90
20560;DHT22;10438;51.454;6.718;2022-08-01T03:41:53;18.90;99.90
20560;DHT22;10438;51.454;6.718;2022-08-01T03:44:24;18.90;99.90
20560;DHT22;10438;51.454;6.718;2022-08-01T03:46:56;18.90;99.90
20560;DHT22;10438;51.454;6.718;2022-08-01T03:49:29;18.90;99.90
20560;DHT22;10438;51.454;6.718;2022-08-01T03:51:55;18.90;99.90
20560;DHT22;10438;51.454;6.718;2022-08-01T03:54:24;18.90;99.90
20560;DHT22;10438;51.454;6.718;2022-08-01T03:56:51;19.00;99.90
20560;DHT22;10438;51.454;6.718;2022-08-01T03:59:18;18.90;99.90
20560;DHT22;10438;51.454;6.718;2022-08-01T04:01:45;18.90;99.90
20560;DHT22;10438;51.454;6.718;2022-08-01T04:04:12;18.90;99.90
20560;DHT22;10438;51.454;6.718;2022-08-01T04:06:41;18.90;99.90
20560;DHT22;10438;51.454;6.718;2022-08-01T04:09:09;18.90;99.90
20560;DHT22;10438;51.454;6.718;2022-08-01T04:11:34;18.90;99.90
20560;DHT22;10438;51.454;6.718;2022-08-01T04:14:00;18.90;99.90
20560;DHT22;10438;51.454;6.718;2022-08-01T04:16:26;18.90;99.90
20560;DHT22;10438;51.454;6.718;2022-08-01T04:18:52;18.90;99.90
20560;DHT22;10438;51.454;6.718;2022-08-01T04:21:23;18.90;99.90
20560;DHT22;10438;51.454;6.718;2022-08-01T04:23:51;18.90;99.90
20560;DHT22;10438;51.454;6.718;2022-08-01T04:26:19;18.90;99.90
20560;DHT22;10438;51.454;6.718;2022-08-01T04:28:47;19.00;99.90
20560;DHT22;10438;51.454;6.718;2022-08-01T04:31:16;18.90;99.90
20560;DHT22;10438;51.454;6.718;2022-08-01T04:33:46;18.90;99.90
20560;DHT22;10438;51.454;6.718;2022-08-01T04:36:14;18.90;99.90
20560;DHT22;10438;51.454;6.718;2022-08-01T04:38:40;18.90;99.90
20560;DHT22;10438;51.454;6.718;2022-08-01T04:41:10;19.00;99.90
20560;DHT22;10438;51.454;6.718;2022-08-01T04:43:37;19.00;99.90
20560;DHT22;10438;51.454;6.718;2022-08-01T04:46:03;19.00;99.90
20560;DHT22;10438;51.454;6.718;2022-08-01T04:48:29;19.00;99.90
20560;DHT22;10438;51.454;6.718;2022-08-01T04:50:56;19.10;99.90
20560;DHT22;10438;51.454;6.718;2022-08-01T04:53:22;19.10;99.90
20560;DHT22;10438;51.454;6.718;2022-08-01T04:55:48;19.10;99.90
20560;DHT22;10438;51.454;6.718;2022-08-01T04:58:14;19.10;99.90
20560;DHT22;10438;51.454;6.718;2022-08-01T05:00:40;19.10;99.90
20560;DHT22;10438;51.454;6.718;2022-08-01T05:03:06;19.10;99.90
20560;DHT22;10438;51.454;6.718;2022-08-01T05:05:31;19.10;99.90
20560;DHT22;10438;51.454;6.718;2022-08-01T05:07:57;19.10;99.90
20560;DHT22;10438;51.454;6.718;2022-08-01T05:10:24;19.10;99.90
20560;DHT22;10438;51.454;6.718;2022-08-01T05:12:51;19.10;99.90
20560;DHT22;10438;51.454;6.718;2022-08-01T05:15:16;19.10;99.90
20560;DHT22;10438;51.454;6.718;2022-08-01T05:17:42;19.00;99.90
20560;DHT22;10438;51.454;6.718;2022-08-01T05:20:08;19.00;99.90
20560;DHT22;10438;51.454;6.718;2022-08-01T05:22:34;19.00;99.90
20560;DHT22;10438;51.454;6.718;2022-08-01T05:24:59;19.00;99.90
20560;DHT22;10438;51.454;6.718;2022-08-01T05:27:25;19.00;99.90
20560;DHT22;10438;51.454;6.718;2022-08-01T05:29:51;19.00;99.90
20560;DHT22;10438;51.454;6.718;2022-08-01T05:32:17;19.00;99.90
20560;DHT22;10438;51.454;6.718;2022-08-01T05:34:42;19.00;99.90
20560;DHT22;10438;51.454;6.718;2022-08-01T05:37:08;18.90;99.90
20560;DHT22;10438;51.454;6.718;2022-08-01T05:39:34;18.90;99.90
20560;DHT22;10438;51.454;6.718;2022-08-01T05:41:59;18.90;99.90
20560;DHT22;10438;51.454;6.718;2022-08-01T05:44:25;18.90;99.90
20560;DHT22;10438;51.454;6.718;2022-08-01T05:46:51;19.00;99.90
20560;DHT22;10438;51.454;6.718;2022-08-01T05:49:16;19.00;99.90
20560;DHT22;10438;51.454;6.718;2022-08-01T05:51:42;19.10;99.90
20560;DHT22;10438;51.454;6.718;2022-08-01T05:54:08;19.10;99.90
20560;DHT22;10438;51.454;6.718;2022-08-01T05:56:33;19.20;99.90
20560;DHT22;10438;51.454;6.718;2022-08-01T05:58:59;19.30;99.90
20560;DHT22;10438;51.454;6.718;2022-08-01T06:01:25;19.30;99.90
20560;DHT22;10438;51.454;6.718;2022-08-01T06:03:50;19.40;99.90
20560;DHT22;10438;51.454;6.718;2022-08-01T06:06:16;19.50;99.90
20560;DHT22;10438;51.454;6.718;2022-08-01T06:08:41;19.60;99.90
20560;DHT22;10438;51.454;6.718;2022-08-01T06:11:07;19.70;99.90
20560;DHT22;10438;51.454;6.718;2022-08-01T06:13:33;19.70;99.90
20560;DHT22;10438;51.454;6.718;2022-08-01T06:15:58;19.80;99.90
20560;DHT22;10438;51.454;6.718;2022-08-01T06:18:24;19.80;99.90
20560;DHT22;10438;51.454;6.718;2022-08-01T06:20:49;19.90;99.90
20560;DHT22;10438;51.454;6.718;2022-08-01T06:23:16;19.90;99.90
20560;DHT22;10438;51.454;6.718;2022-08-01T06:25:42;19.90;99.90
20560;DHT22;10438;51.454;6.718;2022-08-01T06:28:08;20.00;99.90
20560;DHT22;10438;51.454;6.718;2022-08-01T06:30:34;20.00;99.90
20560;DHT22;10438;51.454;6.718;2022-08-01T06:32:59;20.10;99.90
20560;DHT22;10438;51.454;6.718;2022-08-01T06:35:26;20.10;99.90
20560;DHT22;10438;51.454;6.718;2022-08-01T06:37:53;20.10;99.90
20560;DHT22;10438;51.454;6.718;2022-08-01T06:40:19;20.10;99.90
20560;DHT22;10438;51.454;6.718;2022-08-01T06:42:45;20.00;99.90
20560;DHT22;10438;51.454;6.718;2022-08-01T06:45:12;19.90;99.90
20560;DHT22;10438;51.454;6.718;2022-08-01T06:47:39;19.90;99.90
20560;DHT22;10438;51.454;6.718;2022-08-01T06:50:06;20.00;99.90
20560;DHT22;10438;51.454;6.718;2022-08-01T06:52:32;20.10;99.90
20560;DHT22;10438;51.454;6.718;2022-08-01T06:54:58;20.00;99.90
20560;DHT22;10438;51.454;6.718;2022-08-01T06:57:24;20.00;99.90
20560;DHT22;10438;51.454;6.718;2022-08-01T06:59:50;20.10;99.90
20560;DHT22;10438;51.454;6.718;2022-08-01T07:02:16;20.10;99.90
20560;DHT22;10438;51.454;6.718;2022-08-01T07:04:42;20.20;99.90
20560;DHT22;10438;51.454;6.718;2022-08-01T07:07:08;20.30;99.90
20560;DHT22;10438;51.454;6.718;2022-08-01T07:09:34;20.40;99.90
20560;DHT22;10438;51.454;6.718;2022-08-01T07:11:59;20.50;99.90
20560;DHT22;10438;51.454;6.718;2022-08-01T07:14:25;20.60;99.90
20560;DHT22;10438;51.454;6.718;2022-08-01T07:16:51;20.60;99.90
20560;DHT22;10438;51.454;6.718;2022-08-01T07:19:17;20.70;99.90
20560;DHT22;10438;51.454;6.718;2022-08-01T07:21:43;20.90;99.90
20560;DHT22;10438;51.454;6.718;2022-08-01T07:24:11;20.90;99.90
20560;DHT22;10438;51.454;6.718;2022-08-01T07:26:39;20.90;99.90
20560;DHT22;10438;51.454;6.718;2022-08-01T07:29:04;20.90;99.90
20560;DHT22;10438;51.454;6.718;2022-08-01T07:31:30;20.90;99.90
20560;DHT22;10438;51.454;6.718;2022-08-01T07:33:55;20.90;99.90
20560;DHT22;10438;51.454;6.718;2022-08-01T07:36:21;20.90;99.90
20560;DHT22;10438;51.454;6.718;2022-08-01T07:38:47;20.90;99.90
20560;DHT22;10438;51.454;6.718;2022-08-01T07:41:13;20.90;99.90
20560;DHT22;10438;51.454;6.718;2022-08-01T07:43:38;21.00;99.90
20560;DHT22;10438;51.454;6.718;2022-08-01T07:46:04;21.10;99.90
20560;DHT22;10438;51.454;6.718;2022-08-01T07:48:30;21.10;99.90
20560;DHT22;10438;51.454;6.718;2022-08-01T07:50:56;21.20;99.90
20560;DHT22;10438;51.454;6.718;2022-08-01T07:53:22;21.30;99.90
20560;DHT22;10438;51.454;6.718;2022-08-01T07:55:47;21.20;99.90
20560;DHT22;10438;51.454;6.718;2022-08-01T07:58:13;21.20;99.90
20560;DHT22;10438;51.454;6.718;2022-08-01T08:00:39;21.30;99.90
20560;DHT22;10438;51.454;6.718;2022-08-01T08:03:05;21.30;99.90
20560;DHT22;10438;51.454;6.718;2022-08-01T08:05:31;21.30;99.90
20560;DHT22;10438;51.454;6.718;2022-08-01T08:08:01;21.30;99.90
20560;DHT22;10438;51.454;6.718;2022-08-01T08:10:26;21.30;99.90
20560;DHT22;10438;51.454;6.718;2022-08-01T08:12:52;21.30;99.90
20560;DHT22;10438;51.454;6.718;2022-08-01T08:15:17;21.50;99.90
20560;DHT22;10438;51.454;6.718;2022-08-01T08:17:43;21.70;99.90
20560;DHT22;10438;51.454;6.718;2022-08-01T08:20:09;21.80;99.90
20560;DHT22;10438;51.454;6.718;2022-08-01T08:22:35;21.90;99.90
20560;DHT22;10438;51.454;6.718;2022-08-01T08:25:00;22.10;99.90
20560;DHT22;10438;51.454;6.718;2022-08-01T08:27:26;22.40;99.90
20560;DHT22;10438;51.454;6.718;2022-08-01T08:29:52;22.60;99.90
20560;DHT22;10438;51.454;6.718;2022-08-01T08:32:17;22.80;99.90
20560;DHT22;10438;51.454;6.718;2022-08-01T08:34:43;22.60;99.90
20560;DHT22;10438;51.454;6.718;2022-08-01T08:37:09;22.60;99.90
20560;DHT22;10438;51.454;6.718;2022-08-01T08:39:35;22.50;99.90
20560;DHT22;10438;51.454;6.718;2022-08-01T08:42:04;22.60;99.90
20560;DHT22;10438;51.454;6.718;2022-08-01T08:44:31;22.60;99.90
20560;DHT22;10438;51.454;6.718;2022-08-01T08:46:57;22.60;99.90
20560;DHT22;10438;51.454;6.718;2022-08-01T08:49:26;22.70;99.90
20560;DHT22;10438;51.454;6.718;2022-08-01T08:51:53;22.70;99.90
20560;DHT22;10438;51.454;6.718;2022-08-01T08:54:22;22.50;99.90
20560;DHT22;10438;51.454;6.718;2022-08-01T08:56:50;22.50;99.90
20560;DHT22;10438;51.454;6.718;2022-08-01T08:59:15;22.60;99.90
20560;DHT22;10438;51.454;6.718;2022-08-01T09:01:42;22.60;99.90
20560;DHT22;10438;51.454;6.718;2022-08-01T09:04:14;22.60;99.90
20560;DHT22;10438;51.454;6.718;2022-08-01T09:06:40;22.70;99.90
20560;DHT22;10438;51.454;6.718;2022-08-01T09:09:07;22.80;99.90
20560;DHT22;10438;51.454;6.718;2022-08-01T09:11:34;23.00;99.90
20560;DHT22;10438;51.454;6.718;2022-08-01T09:14:15;22.90;99.90
20560;DHT22;10438;51.454;6.718;2022-08-01T09:16:58;22.90;99.90
20560;DHT22;10438;51.454;6.718;2022-08-01T09:19:23;23.00;99.90
20560;DHT22;10438;51.454;6.718;2022-08-01T09:22:03;23.10;99.90
20560;DHT22;10438;51.454;6.718;2022-08-01T09:24:31;23.00;99.90
20560;DHT22;10438;51.454;6.718;2022-08-01T09:26:58;23.00;99.90
20560;DHT22;10438;51.454;6.718;2022-08-01T09:29:26;23.00;99.90
20560;DHT22;10438;51.454;6.718;2022-08-01T09:31:52;22.90;99.90
20560;DHT22;10438;51.454;6.718;2022-08-01T09:34:28;22.90;99.90
20560;DHT22;10438;51.454;6.718;2022-08-01T09:36:59;23.20;99.90
20560;DHT22;10438;51.454;6.718;2022-08-01T09:39:44;23.40;99.90
20560;DHT22;10438;51.454;6.718;2022-08-01T09:42:23;23.60;99.90
20560;DHT22;10438;51.454;6.718;2022-08-01T09:44:49;23.70;99.90
20560;DHT22;10438;51.454;6.718;2022-08-01T09:47:15;23.70;99.90
20560;DHT22;10438;51.454;6.718;2022-08-01T09:49:43;23.70;99.90
20560;DHT22;10438;51.454;6.718;2022-08-01T09:52:20;24.00;99.90
20560;DHT22;10438;51.454;6.718;2022-08-01T09:55:00;24.00;99.90
20560;DHT22;10438;51.454;6.718;2022-08-01T09:57:27;23.70;99.90
20560;DHT22;10438;51.454;6.718;2022-08-01T09:59:55;23.60;99.90
20560;DHT22;10438;51.454;6.718;2022-08-01T10:04:59;23.50;99.90
20560;DHT22;10438;51.454;6.718;2022-08-01T10:07:25;23.60;99.90
20560;DHT22;10438;51.454;6.718;2022-08-01T10:09:51;23.50;99.90
20560;DHT22;10438;51.454;6.718;2022-08-01T10:12:20;23.40;99.90
20560;DHT22;10438;51.454;6.718;2022-08-01T10:14:48;23.40;99.90
20560;DHT22;10438;51.454;6.718;2022-08-01T10:17:18;23.20;99.90
20560;DHT22;10438;51.454;6.718;2022-08-01T10:19:45;23.00;99.90
20560;DHT22;10438;51.454;6.718;2022-08-01T10:22:12;23.20;99.90
20560;DHT22;10438;51.454;6.718;2022-08-01T10:24:44;23.60;99.90
20560;DHT22;10438;51.454;6.718;2022-08-01T10:27:11;24.10;99.90
20560;DHT22;10438;51.454;6.718;2022-08-01T10:29:46;24.60;99.90
20560;DHT22;10438;51.454;6.718;2022-08-01T10:32:12;25.00;99.90
20560;DHT22;10438;51.454;6.718;2022-08-01T10:34:38;25.50;99.90
20560;DHT22;10438;51.454;6.718;2022-08-01T10:37:05;25.70;99.90
20560;DHT22;10438;51.454;6.718;2022-08-01T10:39:32;25.40;99.90
20560;DHT22;10438;51.454;6.718;2022-08-01T10:41:59;24.90;99.90
20560;DHT22;10438;51.454;6.718;2022-08-01T10:44:25;24.50;99.90
20560;DHT22;10438;51.454;6.718;2022-08-01T10:47:01;24.10;99.90
20560;DHT22;10438;51.454;6.718;2022-08-01T10:49:30;23.80;99.90
20560;DHT22;10438;51.454;6.718;2022-08-01T10:51:55;23.60;99.90
20560;DHT22;10438;51.454;6.718;2022-08-01T10:54:24;23.30;99.90
20560;DHT22;10438;51.454;6.718;2022-08-01T10:56:51;23.00;99.90
20560;DHT22;10438;51.454;6.718;2022-08-01T11:02:04;23.00;99.90
20560;DHT22;10438;51.454;6.718;2022-08-01T11:04:44;23.10;99.90
20560;DHT22;10438;51.454;6.718;2022-08-01T11:07:22;23.30;99.90
20560;DHT22;10438;51.454;6.718;2022-08-01T11:10:02;23.50;99.90
20560;DHT22;10438;51.454;6.718;2022-08-01T11:12:41;23.60;99.90
20560;DHT22;10438;51.454;6.718;2022-08-01T11:17:38;24.50;99.90
20560;DHT22;10438;51.454;6.718;2022-08-01T11:20:11;24.50;99.90
20560;DHT22;10438;51.454;6.718;2022-08-01T11:28:18;24.30;99.90
20560;DHT22;10438;51.454;6.718;2022-08-01T11:30:56;24.30;99.90
20560;DHT22;10438;51.454;6.718;2022-08-01T11:38:39;24.90;99.90
20560;DHT22;10438;51.454;6.718;2022-08-01T11:41:12;24.90;99.90
20560;DHT22;10438;51.454;6.718;2022-08-01T11:43:58;24.90;99.90
20560;DHT22;10438;51.454;6.718;2022-08-01T11:46:57;25.30;99.90
20560;DHT22;10438;51.454;6.718;2022-08-01T11:52:23;25.80;99.90
20560;DHT22;10438;51.454;6.718;2022-08-01T11:54:53;25.70;99.90
20560;DHT22;10438;51.454;6.718;2022-08-01T11:57:25;25.80;99.90
20560;DHT22;10438;51.454;6.718;2022-08-01T11:59:55;26.00;99.90
20560;DHT22;10438;51.454;6.718;2022-08-01T12:04:50;26.40;99.90
20560;DHT22;10438;51.454;6.718;2022-08-01T12:07:17;26.30;99.90
20560;DHT22;10438;51.454;6.718;2022-08-01T12:09:43;26.20;99.90
20560;DHT22;10438;51.454;6.718;2022-08-01T12:12:09;26.30;99.90
20560;DHT22;10438;51.454;6.718;2022-08-01T12:14:35;26.50;99.90
20560;DHT22;10438;51.454;6.718;2022-08-01T12:17:01;26.50;99.90
20560;DHT22;10438;51.454;6.718;2022-08-01T12:19:26;26.50;99.90
20560;DHT22;10438;51.454;6.718;2022-08-01T12:22:05;26.20;99.90
20560;DHT22;10438;51.454;6.718;2022-08-01T12:24:33;26.10;99.90
20560;DHT22;10438;51.454;6.718;2022-08-01T12:26:59;26.30;99.90
20560;DHT22;10438;51.454;6.718;2022-08-01T12:29:54;26.60;99.90
20560;DHT22;10438;51.454;6.718;2022-08-01T12:32:32;26.40;99.90
20560;DHT22;10438;51.454;6.718;2022-08-01T12:35:04;26.30;99.90
20560;DHT22;10438;51.454;6.718;2022-08-01T12:37:30;26.20;99.90
20560;DHT22;10438;51.454;6.718;2022-08-01T12:39:56;25.90;99.90
20560;DHT22;10438;51.454;6.718;2022-08-01T12:42:22;25.90;99.90
20560;DHT22;10438;51.454;6.718;2022-08-01T12:44:50;26.20;99.90
20560;DHT22;10438;51.454;6.718;2022-08-01T12:47:18;26.60;99.90
20560;DHT22;10438;51.454;6.718;2022-08-01T12:49:45;27.00;99.90
20560;DHT22;10438;51.454;6.718;2022-08-01T12:52:11;26.90;99.90
20560;DHT22;10438;51.454;6.718;2022-08-01T12:55:01;26.80;99.90
20560;DHT22;10438;51.454;6.718;2022-08-01T12:57:27;27.00;99.90
20560;DHT22;10438;51.454;6.718;2022-08-01T12:59:53;27.10;99.90
20560;DHT22;10438;51.454;6.718;2022-08-01T13:02:19;27.20;99.90
20560;DHT22;10438;51.454;6.718;2022-08-01T13:04:51;27.10;99.90
20560;DHT22;10438;51.454;6.718;2022-08-01T13:07:17;27.00;99.90
20560;DHT22;10438;51.454;6.718;2022-08-01T13:09:51;27.00;99.90
20560;DHT22;10438;51.454;6.718;2022-08-01T13:12:17;27.00;99.90
20560;DHT22;10438;51.454;6.718;2022-08-01T13:14:43;27.20;99.90
20560;DHT22;10438;51.454;6.718;2022-08-01T13:17:08;27.30;99.90
20560;DHT22;10438;51.454;6.718;2022-08-01T13:19:44;27.00;99.90
20560;DHT22;10438;51.454;6.718;2022-08-01T13:22:10;26.80;99.90
20560;DHT22;10438;51.454;6.718;2022-08-01T13:24:36;26.60;99.90
20560;DHT22;10438;51.454;6.718;2022-08-01T13:27:03;26.90;99.90
20560;DHT22;10438;51.454;6.718;2022-08-01T13:29:34;26.70;99.90
20560;DHT22;10438;51.454;6.718;2022-08-01T13:32:18;26.80;99.90
20560;DHT22;10438;51.454;6.718;2022-08-01T13:34:44;27.10;99.90
20560;DHT22;10438;51.454;6.718;2022-08-01T13:37:10;27.40;99.90
20560;DHT22;10438;51.454;6.718;2022-08-01T13:39:35;27.60;99.90
20560;DHT22;10438;51.454;6.718;2022-08-01T13:42:09;27.70;98.70
20560;DHT22;10438;51.454;6.718;2022-08-01T13:44:35;27.70;99.60
20560;DHT22;10438;51.454;6.718;2022-08-01T13:47:05;27.90;96.20
20560;DHT22;10438;51.454;6.718;2022-08-01T13:49:31;27.70;99.90
20560;DHT22;10438;51.454;6.718;2022-08-01T13:51:57;27.50;99.90
20560;DHT22;10438;51.454;6.718;2022-08-01T13:54:23;27.10;99.90
20560;DHT22;10438;51.454;6.718;2022-08-01T13:56:49;26.70;99.90
20560;DHT22;10438;51.454;6.718;2022-08-01T13:59:15;26.40;99.90
20560;DHT22;10438;51.454;6.718;2022-08-01T14:01:41;26.10;99.90
20560;DHT22;10438;51.454;6.718;2022-08-01T14:04:06;26.00;99.90
20560;DHT22;10438;51.454;6.718;2022-08-01T14:06:32;26.00;99.90
20560;DHT22;10438;51.454;6.718;2022-08-01T14:08:58;26.10;99.90
20560;DHT22;10438;51.454;6.718;2022-08-01T14:11:24;26.10;99.90
20560;DHT22;10438;51.454;6.718;2022-08-01T14:13:50;26.00;99.90
20560;DHT22;10438;51.454;6.718;2022-08-01T14:16:16;25.90;99.90
20560;DHT22;10438;51.454;6.718;2022-08-01T14:18:42;26.00;99.90
20560;DHT22;10438;51.454;6.718;2022-08-01T14:21:07;26.00;99.90
20560;DHT22;10438;51.454;6.718;2022-08-01T14:23:33;26.00;99.90
20560;DHT22;10438;51.454;6.718;2022-08-01T14:25:59;26.00;99.90
20560;DHT22;10438;51.454;6.718;2022-08-01T14:28:24;26.20;99.90
20560;DHT22;10438;51.454;6.718;2022-08-01T14:30:52;26.40;99.90
20560;DHT22;10438;51.454;6.718;2022-08-01T14:33:18;26.60;99.90
20560;DHT22;10438;51.454;6.718;2022-08-01T14:35:43;26.70;99.90
20560;DHT22;10438;51.454;6.718;2022-08-01T14:38:09;26.70;99.90
20560;DHT22;10438;51.454;6.718;2022-08-01T14:40:35;26.70;99.90
20560;DHT22;10438;51.454;6.718;2022-08-01T14:43:00;26.90;99.90
20560;DHT22;10438;51.454;6.718;2022-08-01T14:45:27;27.00;99.90
20560;DHT22;10438;51.454;6.718;2022-08-01T14:47:52;26.80;99.90
20560;DHT22;10438;51.454;6.718;2022-08-01T14:50:18;26.80;99.90
20560;DHT22;10438;51.454;6.718;2022-08-01T14:52:44;27.00;99.90
20560;DHT22;10438;51.454;6.718;2022-08-01T14:55:10;27.10;97.10
20560;DHT22;10438;51.454;6.718;2022-08-01T14:57:37;27.60;98.90
20560;DHT22;10438;51.454;6.718;2022-08-01T15:00:06;27.90;91.10
20560;DHT22;10438;51.454;6.718;2022-08-01T15:02:33;28.00;76.00
20560;DHT22;10438;51.454;6.718;2022-08-01T15:04:59;28.00;83.20
20560;DHT22;10438;51.454;6.718;2022-08-01T15:07:24;28.30;80.70
20560;DHT22;10438;51.454;6.718;2022-08-01T15:09:50;28.90;69.30
20560;DHT22;10438;51.454;6.718;2022-08-01T15:12:15;29.10;67.40
20560;DHT22;10438;51.454;6.718;2022-08-01T15:14:41;29.10;49.10
20560;DHT22;10438;51.454;6.718;2022-08-01T15:17:14;29.30;52.60
20560;DHT22;10438;51.454;6.718;2022-08-01T15:19:40;29.40;48.00
20560;DHT22;10438;51.454;6.718;2022-08-01T15:22:05;29.40;43.30
20560;DHT22;10438;51.454;6.718;2022-08-01T15:24:31;29.60;39.20
20560;DHT22;10438;51.454;6.718;2022-08-01T15:26:57;29.60;43.20
20560;DHT22;10438;51.454;6.718;2022-08-01T15:29:22;29.80;37.10
20560;DHT22;10438;51.454;6.718;2022-08-01T15:31:48;29.80;31.60
20560;DHT22;10438;51.454;6.718;2022-08-01T15:34:14;29.90;35.40
20560;DHT22;10438;51.454;6.718;2022-08-01T15:36:39;29.30;42.70
20560;DHT22;10438;51.454;6.718;2022-08-01T15:39:05;28.90;40.30
20560;DHT22;10438;51.454;6.718;2022-08-01T15:41:30;28.50;47.90
20560;DHT22;10438;51.454;6.718;2022-08-01T15:43:56;28.20;55.30
20560;DHT22;10438;51.454;6.718;2022-08-01T15:46:22;28.00;54.20
20560;DHT22;10438;51.454;6.718;2022-08-01T15:48:48;27.60;55.50
20560;DHT22;10438;51.454;6.718;2022-08-01T15:51:14;27.30;61.60
20560;DHT22;10438;51.454;6.718;2022-08-01T15:53:39;27.00;63.90
20560;DHT22;10438;51.454;6.718;2022-08-01T15:56:05;26.60;88.70
20560;DHT22;10438;51.454;6.718;2022-08-01T15:58:31;26.30;83.70
20560;DHT22;10438;51.454;6.718;2022-08-01T16:00:57;26.20;90.00
20560;DHT22;10438;51.454;6.718;2022-08-01T16:03:22;26.20;94.30
20560;DHT22;10438;51.454;6.718;2022-08-01T16:05:48;26.20;94.10
20560;DHT22;10438;51.454;6.718;2022-08-01T16:08:16;26.50;94.90
20560;DHT22;10438;51.454;6.718;2022-08-01T16:10:42;26.80;81.50
20560;DHT22;10438;51.454;6.718;2022-08-01T16:13:08;26.60;81.00